< Cyclone 198108 1981 Season Cyclone 198110 >
Cyclone 198109 (CLIFF)
General InformationTrack Information on Google Maps || ResourceGoogle EarthGE AnimationAtom FeedGeoJSON
Detalied Best Track (Time Zone = UTC)
Year Month Day Hour Lat. Long. Pressure (hPa) Wind (kt) Class Image Chart
1981 2 9 00 -11.0 171.6 1002 0 0 -- --
1981 2 9 03 -11.2 171.3 1002 0 0 -- --
1981 2 9 06 -11.4 171.0 1002 0 0 -- --
1981 2 9 09 -11.6 170.7 1002 0 0 -- --
1981 2 9 12 -11.9 170.3 1000 0 0 -- --
1981 2 9 15 -12.2 169.9 1000 0 0 -- --
1981 2 9 18 -12.5 169.4 1000 0 0 -- --
1981 2 9 21 -12.8 169.0 1000 0 0 -- --
1981 2 10 00 -13.1 168.6 1000 0 0 -- --
1981 2 10 03 -13.4 168.3 998 0 0 -- --
1981 2 10 06 -13.7 168.2 998 0 0 -- --
1981 2 10 09 -14.0 168.3 998 0 0 -- --
1981 2 10 12 -14.3 168.6 996 0 0 -- --
1981 2 10 15 -14.6 168.8 994 0 0 -- --
1981 2 10 18 -15.0 169.0 992 0 0 -- --
1981 2 10 21 -15.3 169.1 992 0 0 -- --
1981 2 11 00 -15.6 169.0 992 0 0 -- --
1981 2 11 03 -16.0 168.9 989 0 0 -- --
1981 2 11 06 -16.3 168.7 990 0 0 -- --
1981 2 11 09 -16.8 168.5 988 0 0 -- --
1981 2 11 12 -17.1 168.4 985 0 0 -- --
1981 2 11 15 -17.4 168.2 982 0 0 -- --
1981 2 11 18 -17.7 168.0 980 0 0 -- --
1981 2 11 21 -18.1 167.8 980 0 0 -- --
1981 2 12 00 -18.5 167.6 980 0 0 -- --
1981 2 12 03 -19.1 167.1 980 0 0 -- --
1981 2 12 06 -19.8 166.4 975 0 0 -- --
1981 2 12 09 -20.6 165.9 975 0 0 -- --
1981 2 12 12 -21.1 165.4 975 0 0 -- --
1981 2 12 15 -21.5 164.9 975 0 0 -- --
1981 2 12 18 -21.8 164.4 975 0 0 -- --
1981 2 12 21 -22.0 163.8 975 0 0 -- --
1981 2 13 00 -22.4 163.2 978 0 0 -- --
1981 2 13 03 -23.0 162.5 980 0 0 -- --
1981 2 13 06 -23.9 161.8 980 0 0 -- --
1981 2 13 09 -24.6 160.9 980 0 0 -- --
1981 2 13 12 -25.1 159.5 985 0 0 -- --
1981 2 13 15 -25.4 158.4 980 0 0 -- --
1981 2 13 18 -25.6 157.7 985 0 0 -- --
1981 2 13 21 -25.7 157.2 985 0 0 -- --
1981 2 14 00 -25.7 156.6 985 0 0 -- --
1981 2 14 03 -25.7 156.0 985 0 0 -- --
1981 2 14 06 -25.6 155.2 985 0 0 -- --
1981 2 14 09 -25.5 154.5 985 0 0 -- --
1981 2 14 12 -25.3 153.8 985 0 0 -- --
1981 2 14 15 -25.1 153.4 985 0 0 -- --
1981 2 14 18 -25.0 152.6 990 0 0 -- --
1981 2 14 21 -25.1 151.6 992 0 0 -- --
1981 2 15 00 -25.0 150.6 998 0 0 -- --
1981 2 15 03 -25.6 149.0 1000 0 0 -- --
1981 2 15 06 -26.0 147.3 999 0 0 -- --
1981 2 15 09 -25.9 146.5 1000 0 0 -- --
< Cyclone 198108 1981 Season Cyclone 198110 >

Help